Terminal Aerodrome Forecast
Issued by NWS

Home | Current Version | Previous Version | Text Only | Print | Product List | Glossary On
Versions: 1 2 3 4 5 6 7 8 9 10 11 12 13 14 15 16 17 18 19 20 21 22 23 24 25 26 27 28 29 30 31 32 33
000
FTAK31 PANC 290532 CCA
TAFADU
TAF COR
PADU 290532Z 2906/3006 20011G25KT P6SM BKN040
      TEMPO 2906/2910 6SM -SHRA BR BKN020
     FM291100 23015G22KT 6SM -SHRA BKN025=

USA.gov is the U.S. government's official web portal to all federal, state and local government web resources and services.